createdAt,value
2023-05-05T00:00:52.347Z,0.00
2023-05-05T00:01:52.341Z,0.00
2023-05-05T00:02:52.350Z,0.00
2023-05-05T00:03:52.378Z,0.00
2023-05-05T00:04:52.274Z,0.00
2023-05-05T00:05:52.319Z,0.00
2023-05-05T00:06:52.263Z,0.00
2023-05-05T00:07:52.255Z,0.00
2023-05-05T00:08:52.235Z,0.00
2023-05-05T00:09:52.227Z,0.00
2023-05-05T00:10:52.255Z,0.00
2023-05-05T00:11:52.205Z,0.00
2023-05-05T00:12:52.242Z,0.00
2023-05-05T00:13:52.194Z,0.00
2023-05-05T00:14:52.232Z,0.00
2023-05-05T00:15:52.201Z,0.00
2023-05-05T00:16:52.185Z,0.00
2023-05-05T00:17:52.228Z,0.00
2023-05-05T00:18:52.136Z,0.00
2023-05-05T00:19:52.115Z,0.00
2023-05-05T00:20:52.362Z,0.00
2023-05-05T00:21:52.122Z,0.00
2023-05-05T00:22:52.082Z,0.00
2023-05-05T00:23:52.085Z,0.00
2023-05-05T00:24:52.102Z,0.00
2023-05-05T00:25:52.057Z,0.00
2023-05-05T00:26:52.052Z,0.00
2023-05-05T00:27:52.069Z,0.00
2023-05-05T00:28:52.047Z,0.00
2023-05-05T00:29:52.036Z,0.00
2023-05-05T00:30:52.060Z,0.00
2023-05-05T00:31:52.016Z,0.00
2023-05-05T00:32:52.016Z,0.00
2023-05-05T00:33:52.017Z,0.00
2023-05-05T00:34:51.961Z,0.00
2023-05-05T00:35:51.966Z,0.00
2023-05-05T00:36:51.990Z,0.00
2023-05-05T00:37:51.940Z,0.00
2023-05-05T00:38:51.969Z,0.00
2023-05-05T00:39:51.914Z,0.00
2023-05-05T00:40:51.938Z,0.00
2023-05-05T00:41:51.897Z,0.00
2023-05-05T00:42:51.889Z,0.00
2023-05-05T00:43:51.888Z,0.00
2023-05-05T00:44:51.892Z,0.00
2023-05-05T00:45:51.849Z,0.00
2023-05-05T00:46:51.864Z,0.00
2023-05-05T00:47:51.874Z,0.00
2023-05-05T00:48:51.860Z,0.00
2023-05-05T00:49:51.840Z,0.00
2023-05-05T00:50:51.813Z,0.00
2023-05-05T00:51:51.799Z,0.00
2023-05-05T00:52:51.796Z,0.00
2023-05-05T00:53:51.787Z,0.00
2023-05-05T00:54:51.751Z,0.00
2023-05-05T00:55:51.771Z,0.00
2023-05-05T00:56:51.746Z,0.00
2023-05-05T00:57:51.736Z,0.00
2023-05-05T00:58:51.713Z,0.00
2023-05-05T00:59:51.711Z,0.00
2023-05-05T01:00:51.703Z,0.00
2023-05-05T01:01:51.743Z,0.00
2023-05-05T01:02:51.717Z,0.00
2023-05-05T01:03:51.738Z,0.00
2023-05-05T01:04:51.656Z,0.00
2023-05-05T01:05:51.657Z,0.00
2023-05-05T01:06:51.643Z,0.00
2023-05-05T01:07:51.619Z,0.00
2023-05-05T01:08:51.603Z,0.00
2023-05-05T01:10:00.898Z,0.00
2023-05-05T01:10:51.607Z,0.00
2023-05-05T01:11:51.609Z,0.00
2023-05-05T01:12:51.603Z,0.00
2023-05-05T01:13:51.557Z,0.00
2023-05-05T01:14:51.550Z,0.00
2023-05-05T01:15:51.570Z,0.00
2023-05-05T01:16:51.528Z,0.00
2023-05-05T01:17:51.591Z,0.00
2023-05-05T01:18:51.503Z,0.00
2023-05-05T01:19:51.485Z,0.00
2023-05-05T01:20:51.565Z,0.00
2023-05-05T01:21:51.482Z,0.00
2023-05-05T01:22:52.329Z,0.00
2023-05-05T01:23:51.449Z,0.00
2023-05-05T01:24:51.581Z,0.00
2023-05-05T01:25:51.761Z,0.00
2023-05-05T01:26:51.436Z,0.00
2023-05-05T01:27:51.406Z,0.00
2023-05-05T01:28:51.406Z,0.00
2023-05-05T01:29:51.414Z,0.00
2023-05-05T01:30:51.373Z,0.00
2023-05-05T01:31:51.454Z,0.00
2023-05-05T01:32:51.390Z,0.00
2023-05-05T01:33:51.347Z,0.00
2023-05-05T01:34:51.399Z,0.00
2023-05-05T01:35:51.315Z,0.00
2023-05-05T01:36:51.308Z,0.00
2023-05-05T01:37:51.443Z,0.00
2023-05-05T01:38:51.310Z,0.00
2023-05-05T01:39:51.307Z,0.00
2023-05-05T01:40:51.276Z,0.00
2023-05-05T01:41:51.270Z,0.00
2023-05-05T01:42:51.254Z,0.00
2023-05-05T01:43:51.270Z,0.00
2023-05-05T01:44:51.229Z,0.00
2023-05-05T01:45:51.269Z,0.00
2023-05-05T01:46:51.217Z,0.00
2023-05-05T01:47:51.227Z,0.00
2023-05-05T01:48:51.199Z,0.00
2023-05-05T01:49:51.182Z,0.00
2023-05-05T01:50:51.171Z,0.00
2023-05-05T01:51:51.158Z,0.00
2023-05-05T01:52:51.194Z,0.00
2023-05-05T01:53:51.121Z,0.00
2023-05-05T01:54:51.147Z,0.00
2023-05-05T01:55:51.139Z,0.00
2023-05-05T01:56:51.098Z,0.00
2023-05-05T01:57:51.092Z,0.00
2023-05-05T01:58:51.114Z,0.00
2023-05-05T01:59:51.098Z,0.00
2023-05-05T02:00:51.115Z,0.00
2023-05-05T02:01:51.054Z,0.00
2023-05-05T02:02:51.175Z,0.00
2023-05-05T02:03:51.011Z,0.00
2023-05-05T02:04:51.142Z,0.00
2023-05-05T02:05:50.998Z,0.00
2023-05-05T02:06:51.013Z,0.00
2023-05-05T02:07:50.987Z,0.00
2023-05-05T02:08:50.970Z,0.00
2023-05-05T02:09:50.961Z,0.00
2023-05-05T02:10:51.060Z,0.00
2023-05-05T02:11:50.961Z,0.00
2023-05-05T02:12:50.988Z,0.00
2023-05-05T02:13:50.952Z,0.00
2023-05-05T02:14:50.917Z,0.00
2023-05-05T02:15:51.027Z,0.00
2023-05-05T02:16:50.888Z,0.00
2023-05-05T02:17:50.901Z,0.00
2023-05-05T02:18:50.871Z,0.00
2023-05-05T02:19:50.862Z,0.00
2023-05-05T02:20:50.864Z,0.00
2023-05-05T02:21:50.859Z,0.00
2023-05-05T02:22:50.891Z,0.00
2023-05-05T02:23:50.805Z,0.00
2023-05-05T02:24:50.811Z,0.00
2023-05-05T02:25:50.804Z,0.00
2023-05-05T02:26:50.788Z,0.00
2023-05-05T02:27:50.778Z,0.00
2023-05-05T02:28:50.759Z,0.00
2023-05-05T02:29:50.770Z,0.00
2023-05-05T02:30:50.773Z,0.00
2023-05-05T02:31:50.843Z,0.00
2023-05-05T02:32:50.774Z,0.00
2023-05-05T02:33:50.709Z,0.00
2023-05-05T02:34:50.743Z,0.00
2023-05-05T02:35:50.689Z,0.00
2023-05-05T02:36:50.678Z,0.00
2023-05-05T02:37:50.661Z,0.00
2023-05-05T02:38:50.672Z,0.00
2023-05-05T02:39:50.677Z,0.00
2023-05-05T02:40:50.629Z,0.00
2023-05-05T02:41:50.613Z,0.00
2023-05-05T02:42:50.665Z,0.00
2023-05-05T02:43:50.614Z,0.00
2023-05-05T02:44:50.599Z,0.00
2023-05-05T02:45:50.645Z,0.00
2023-05-05T02:46:50.611Z,0.00
2023-05-05T02:47:50.571Z,0.00
2023-05-05T02:48:50.546Z,0.00
2023-05-05T02:49:50.528Z,0.00
2023-05-05T02:50:50.532Z,0.00
2023-05-05T02:51:50.509Z,0.00
2023-05-05T02:52:50.561Z,0.00
2023-05-05T02:53:50.494Z,0.00
2023-05-05T02:54:50.478Z,0.00
2023-05-05T02:55:50.471Z,0.00
2023-05-05T02:56:50.422Z,0.00
2023-05-05T02:57:50.398Z,0.00
2023-05-05T02:58:50.577Z,0.00
2023-05-05T02:59:50.455Z,0.00
2023-05-05T03:00:50.445Z,0.00
2023-05-05T03:01:50.486Z,0.00
2023-05-05T03:02:50.492Z,0.00
2023-05-05T03:03:50.441Z,0.00
2023-05-05T03:04:50.370Z,0.00
2023-05-05T03:05:50.368Z,0.00
2023-05-05T03:06:50.317Z,0.00
2023-05-05T03:07:50.301Z,0.00
2023-05-05T03:08:50.295Z,0.00
2023-05-05T03:09:50.275Z,0.00
2023-05-05T03:10:50.249Z,0.00
2023-05-05T03:11:50.243Z,0.00
2023-05-05T03:12:50.277Z,0.00
2023-05-05T03:13:50.218Z,0.00
2023-05-05T03:14:50.215Z,0.00
2023-05-05T03:15:50.203Z,0.00
2023-05-05T03:16:50.216Z,0.00
2023-05-05T03:17:50.225Z,0.00
2023-05-05T03:18:50.175Z,0.00
2023-05-05T03:19:50.181Z,0.00
2023-05-05T03:20:50.146Z,0.00
2023-05-05T03:21:50.160Z,0.00
2023-05-05T03:22:50.134Z,0.00
2023-05-05T03:23:50.113Z,0.00
2023-05-05T03:24:50.110Z,0.00
2023-05-05T03:25:50.120Z,0.00
2023-05-05T03:26:50.110Z,0.00
2023-05-05T03:27:50.088Z,0.00
2023-05-05T03:28:50.072Z,0.00
2023-05-05T03:29:50.046Z,0.00
2023-05-05T03:30:50.049Z,0.00
2023-05-05T03:31:50.145Z,0.00
2023-05-05T03:32:50.069Z,0.00
2023-05-05T03:33:50.020Z,0.00
2023-05-05T03:34:50.025Z,0.00
2023-05-05T03:35:50.017Z,0.00
2023-05-05T03:36:49.975Z,0.00
2023-05-05T03:37:49.983Z,0.00
2023-05-05T03:38:49.953Z,0.00
2023-05-05T03:39:49.971Z,0.00
2023-05-05T03:40:49.964Z,0.00
2023-05-05T03:41:49.922Z,0.00
2023-05-05T03:42:49.977Z,0.00
2023-05-05T03:43:49.938Z,0.00
2023-05-05T03:44:49.923Z,0.00
2023-05-05T03:45:49.958Z,0.00
2023-05-05T03:46:49.872Z,0.00
2023-05-05T03:47:49.912Z,0.00
2023-05-05T03:48:49.849Z,0.00
2023-05-05T03:49:49.852Z,0.00
2023-05-05T03:50:49.825Z,0.00
2023-05-05T03:51:49.807Z,0.00
2023-05-05T03:52:49.806Z,0.00
2023-05-05T03:53:49.791Z,0.00
2023-05-05T03:54:49.813Z,0.00
2023-05-05T03:55:49.785Z,0.00
2023-05-05T03:56:49.780Z,0.00
2023-05-05T03:57:49.746Z,0.00
2023-05-05T03:58:49.765Z,0.00
2023-05-05T03:59:49.743Z,0.00
2023-05-05T04:00:49.750Z,0.00
2023-05-05T04:01:49.722Z,5.62
2023-05-05T04:02:49.824Z,5.62
2023-05-05T04:03:49.756Z,5.62
2023-05-05T04:04:49.693Z,5.62
2023-05-05T04:05:49.684Z,5.62
2023-05-05T04:06:49.675Z,5.62
2023-05-05T04:07:49.656Z,5.62
2023-05-05T04:08:49.655Z,5.62
2023-05-05T04:09:49.630Z,5.62
2023-05-05T04:10:49.656Z,5.62
2023-05-05T04:11:49.620Z,5.62
2023-05-05T04:12:49.728Z,5.62
2023-05-05T04:13:49.898Z,5.62
2023-05-05T04:14:49.583Z,5.62
2023-05-05T04:15:49.613Z,5.62
2023-05-05T04:16:49.565Z,5.62
2023-05-05T04:17:49.586Z,5.62
2023-05-05T04:18:49.588Z,5.62
2023-05-05T04:19:49.565Z,11.25
2023-05-05T04:20:49.528Z,11.25
2023-05-05T04:21:49.516Z,11.25
2023-05-05T04:22:51.413Z,11.25
2023-05-05T04:23:49.488Z,11.25
2023-05-05T04:24:50.511Z,11.25
2023-05-05T04:25:49.458Z,11.25
2023-05-05T04:26:49.464Z,11.25
2023-05-05T04:27:49.499Z,11.25
2023-05-05T04:28:49.445Z,11.25
2023-05-05T04:29:49.424Z,11.25
2023-05-05T04:30:49.418Z,11.25
2023-05-05T04:31:49.611Z,16.88
2023-05-05T04:32:49.448Z,16.88
2023-05-05T04:33:49.377Z,16.88
2023-05-05T04:34:49.366Z,16.88
2023-05-05T04:35:49.375Z,16.88
2023-05-05T04:36:49.395Z,16.88
2023-05-05T04:37:49.323Z,16.88
2023-05-05T04:38:49.352Z,16.88
2023-05-05T04:39:49.353Z,16.88
2023-05-05T04:40:49.321Z,16.88
2023-05-05T04:41:49.312Z,16.88
2023-05-05T04:42:49.290Z,16.88
2023-05-05T04:43:49.290Z,16.88
2023-05-05T04:44:49.260Z,16.88
2023-05-05T04:45:49.316Z,16.88
2023-05-05T04:46:49.299Z,16.88
2023-05-05T04:47:49.272Z,16.88
2023-05-05T04:48:49.292Z,22.50
2023-05-05T04:49:49.275Z,16.88
2023-05-05T04:50:49.215Z,16.88
2023-05-05T04:51:49.203Z,16.88
2023-05-05T04:52:50.782Z,16.88
2023-05-05T04:53:49.160Z,22.50
2023-05-05T04:54:49.227Z,16.88
2023-05-05T04:55:49.294Z,22.50
2023-05-05T04:56:49.148Z,16.88
2023-05-05T04:57:49.127Z,22.50
2023-05-05T04:58:49.134Z,22.50
2023-05-05T04:59:49.106Z,22.50
2023-05-05T05:00:49.107Z,22.50
2023-05-05T05:01:49.150Z,16.88
2023-05-05T05:02:49.153Z,16.88
2023-05-05T05:03:49.114Z,16.88
2023-05-05T05:04:49.071Z,28.12
2023-05-05T05:05:49.035Z,28.12
2023-05-05T05:06:49.035Z,28.12
2023-05-05T05:07:49.031Z,28.12
2023-05-05T05:08:48.998Z,22.50
2023-05-05T05:09:49.009Z,22.50
2023-05-05T05:10:48.977Z,28.12
2023-05-05T05:11:49.010Z,28.12
2023-05-05T05:12:49.012Z,28.12
2023-05-05T05:13:48.981Z,22.50
2023-05-05T05:14:48.958Z,22.50
2023-05-05T05:15:48.951Z,28.12
2023-05-05T05:16:48.984Z,28.12
2023-05-05T05:17:48.945Z,28.12
2023-05-05T05:18:48.902Z,33.75
2023-05-05T05:19:48.914Z,33.75
2023-05-05T05:20:48.869Z,33.75
2023-05-05T05:21:48.886Z,33.75
2023-05-05T05:22:48.865Z,33.75
2023-05-05T05:23:48.902Z,33.75
2023-05-05T05:24:48.832Z,33.75
2023-05-05T05:25:48.834Z,33.75
2023-05-05T05:26:48.814Z,33.75
2023-05-05T05:27:58.520Z,33.75
2023-05-05T05:28:48.829Z,33.75
2023-05-05T05:29:48.788Z,33.75
2023-05-05T05:30:48.770Z,33.75
2023-05-05T05:31:48.772Z,39.38
2023-05-05T05:32:48.792Z,39.38
2023-05-05T05:33:48.739Z,33.75
2023-05-05T05:34:48.728Z,39.38
2023-05-05T05:35:48.715Z,39.38
2023-05-05T05:36:48.703Z,39.38
2023-05-05T05:37:48.973Z,39.38
2023-05-05T05:38:48.685Z,39.38
2023-05-05T05:39:48.671Z,39.38
2023-05-05T05:40:48.653Z,39.38
2023-05-05T05:41:48.667Z,39.38
2023-05-05T05:42:48.657Z,39.38
2023-05-05T05:43:48.618Z,39.38
2023-05-05T05:44:48.637Z,39.38
2023-05-05T05:45:48.680Z,39.38
2023-05-05T05:46:48.617Z,39.38
2023-05-05T05:47:48.637Z,39.38
2023-05-05T05:48:48.606Z,39.38
2023-05-05T05:49:48.576Z,39.38
2023-05-05T05:50:48.555Z,39.38
2023-05-05T05:51:48.557Z,39.38
2023-05-05T05:52:48.550Z,39.38
2023-05-05T05:53:48.528Z,33.75
2023-05-05T05:54:48.532Z,39.38
2023-05-05T05:55:48.515Z,39.38
2023-05-05T05:56:48.554Z,39.38
2023-05-05T05:57:48.489Z,39.38
2023-05-05T05:58:48.506Z,39.38
2023-05-05T05:59:48.463Z,39.38
2023-05-05T06:00:48.454Z,45.00
2023-05-05T06:01:48.440Z,39.38
2023-05-05T06:02:48.550Z,45.00
2023-05-05T06:03:48.462Z,45.00
2023-05-05T06:04:48.411Z,45.00
2023-05-05T06:05:48.428Z,45.00
2023-05-05T06:06:48.405Z,50.62
2023-05-05T06:07:48.414Z,50.62
2023-05-05T06:08:48.350Z,56.25
2023-05-05T06:09:48.368Z,56.25
2023-05-05T06:10:48.360Z,56.25
2023-05-05T06:11:48.344Z,56.25
2023-05-05T06:12:48.352Z,56.25
2023-05-05T06:13:48.313Z,56.25
2023-05-05T06:14:48.311Z,56.25
2023-05-05T06:15:48.365Z,61.88
2023-05-05T06:16:55.035Z,56.25
2023-05-05T06:17:48.313Z,56.25
2023-05-05T06:18:48.247Z,50.62
2023-05-05T06:19:48.254Z,50.62
2023-05-05T06:20:48.309Z,45.00
2023-05-05T06:21:48.237Z,50.62
2023-05-05T06:22:48.221Z,50.62
2023-05-05T06:23:48.227Z,45.00
2023-05-05T06:24:48.198Z,45.00
2023-05-05T06:25:48.280Z,45.00
2023-05-05T06:26:48.166Z,45.00
2023-05-05T06:27:48.215Z,45.00
2023-05-05T06:28:48.152Z,45.00
2023-05-05T06:29:48.180Z,45.00
2023-05-05T06:30:48.151Z,45.00
2023-05-05T06:31:48.170Z,45.00
2023-05-05T06:32:48.149Z,50.62
2023-05-05T06:33:48.120Z,50.62
2023-05-05T06:34:48.096Z,50.62
2023-05-05T06:35:48.075Z,50.62
2023-05-05T06:36:48.206Z,56.25
2023-05-05T06:37:48.058Z,61.88
2023-05-05T06:38:48.056Z,56.25
2023-05-05T06:39:48.052Z,61.88
2023-05-05T06:40:48.033Z,61.88
2023-05-05T06:41:48.007Z,61.88
2023-05-05T06:42:48.016Z,56.25
2023-05-05T06:43:47.995Z,56.25
2023-05-05T06:44:47.974Z,67.50
2023-05-05T06:45:48.062Z,61.88
2023-05-05T06:46:48.021Z,61.88
2023-05-05T06:47:48.088Z,56.25
2023-05-05T06:48:47.937Z,50.62
2023-05-05T06:49:47.942Z,50.62
2023-05-05T06:50:47.911Z,50.62
2023-05-05T06:51:47.922Z,56.25
2023-05-05T06:52:48.057Z,56.25
2023-05-05T06:53:48.022Z,56.25
2023-05-05T06:54:47.891Z,61.88
2023-05-05T06:55:47.891Z,61.88
2023-05-05T06:56:47.865Z,61.88
2023-05-05T06:57:47.880Z,61.88
2023-05-05T06:58:47.839Z,61.88
2023-05-05T06:59:47.843Z,61.88
2023-05-05T07:00:47.840Z,78.75
2023-05-05T07:01:47.827Z,78.75
2023-05-05T07:02:47.851Z,78.75
2023-05-05T07:03:47.848Z,84.38
2023-05-05T07:04:47.777Z,84.38
2023-05-05T07:05:47.769Z,84.38
2023-05-05T07:06:47.797Z,84.38
2023-05-05T07:07:47.733Z,90.00
2023-05-05T07:08:47.727Z,84.38
2023-05-05T07:09:47.713Z,73.12
2023-05-05T07:10:47.818Z,67.50
2023-05-05T07:11:47.735Z,73.12
2023-05-05T07:12:47.701Z,73.12
2023-05-05T07:13:47.683Z,67.50
2023-05-05T07:14:47.668Z,67.50
2023-05-05T07:15:47.670Z,67.50
2023-05-05T07:16:47.638Z,67.50
2023-05-05T07:17:47.667Z,67.50
2023-05-05T07:18:47.646Z,61.88
2023-05-05T07:19:47.638Z,56.25
2023-05-05T07:20:47.622Z,61.88
2023-05-05T07:21:47.680Z,61.88
2023-05-05T07:22:47.580Z,61.88
2023-05-05T07:23:47.655Z,61.88
2023-05-05T07:24:48.623Z,61.88
2023-05-05T07:25:47.594Z,67.50
2023-05-05T07:26:47.538Z,67.50
2023-05-05T07:27:47.565Z,67.50
2023-05-05T07:28:47.548Z,67.50
2023-05-05T07:29:47.506Z,67.50
2023-05-05T07:30:47.578Z,67.50
2023-05-05T07:31:47.579Z,67.50
2023-05-05T07:32:47.509Z,67.50
2023-05-05T07:33:47.485Z,67.50
2023-05-05T07:34:47.545Z,67.50
2023-05-05T07:35:47.494Z,73.12
2023-05-05T07:36:47.446Z,73.12
2023-05-05T07:37:47.440Z,73.12
2023-05-05T07:38:47.414Z,73.12
2023-05-05T07:39:47.460Z,78.75
2023-05-05T07:40:47.388Z,73.12
2023-05-05T07:41:47.376Z,73.12
2023-05-05T07:42:47.576Z,84.38
2023-05-05T07:43:47.444Z,84.38
2023-05-05T07:44:47.447Z,84.38
2023-05-05T07:45:47.353Z,90.00
2023-05-05T07:46:47.331Z,90.00
2023-05-05T07:47:47.347Z,90.00
2023-05-05T07:48:47.376Z,95.62
2023-05-05T07:49:47.311Z,95.62
2023-05-05T07:50:47.305Z,95.62
2023-05-05T07:51:47.301Z,101.25
2023-05-05T07:52:51.804Z,101.25
2023-05-05T07:53:47.267Z,106.88
2023-05-05T07:54:47.259Z,106.88
2023-05-05T07:55:47.238Z,106.88
2023-05-05T07:56:47.219Z,112.50
2023-05-05T07:57:47.232Z,112.50
2023-05-05T07:58:47.195Z,112.50
2023-05-05T07:59:47.212Z,118.12
2023-05-05T08:00:47.170Z,118.12
2023-05-05T08:01:47.161Z,123.75
2023-05-05T08:02:47.305Z,123.75
2023-05-05T08:03:47.202Z,129.38
2023-05-05T08:04:47.178Z,129.38
2023-05-05T08:05:47.130Z,135.00
2023-05-05T08:06:47.124Z,135.00
2023-05-05T08:07:47.120Z,135.00
2023-05-05T08:08:47.102Z,140.62
2023-05-05T08:09:47.157Z,140.62
2023-05-05T08:10:47.068Z,140.62
2023-05-05T08:11:47.066Z,146.25
2023-05-05T08:12:47.082Z,146.25
2023-05-05T08:13:47.059Z,146.25
2023-05-05T08:14:47.043Z,146.25
2023-05-05T08:15:47.086Z,151.88
2023-05-05T08:16:47.009Z,151.88
2023-05-05T08:17:47.086Z,163.12
2023-05-05T08:18:46.977Z,168.75
2023-05-05T08:19:46.994Z,180.00
2023-05-05T08:20:46.960Z,191.25
2023-05-05T08:21:47.110Z,213.75
2023-05-05T08:22:47.000Z,275.62
2023-05-05T08:23:46.929Z,495.00
2023-05-05T08:24:46.930Z,731.25
2023-05-05T08:25:46.919Z,815.62
2023-05-05T08:26:46.944Z,770.62
2023-05-05T08:27:47.009Z,787.50
2023-05-05T08:28:46.870Z,658.12
2023-05-05T08:29:46.887Z,753.75
2023-05-05T08:30:46.863Z,787.50
2023-05-05T08:31:46.925Z,855.00
2023-05-05T08:32:46.935Z,669.38
2023-05-05T08:33:46.826Z,720.00
2023-05-05T08:34:46.822Z,585.00
2023-05-05T08:35:46.866Z,635.62
2023-05-05T08:36:46.800Z,798.75
2023-05-05T08:37:46.816Z,686.25
2023-05-05T08:38:46.804Z,725.62
2023-05-05T08:39:46.763Z,523.12
2023-05-05T08:40:46.761Z,360.00
2023-05-05T08:41:46.753Z,478.12
2023-05-05T08:42:46.770Z,416.25
2023-05-05T08:43:46.733Z,371.25
2023-05-05T08:44:46.731Z,326.25
2023-05-05T08:45:46.708Z,365.62
2023-05-05T08:46:46.730Z,405.00
2023-05-05T08:47:47.105Z,354.38
2023-05-05T08:48:46.681Z,427.50
2023-05-05T08:49:46.733Z,478.12
2023-05-05T08:50:46.674Z,478.12
2023-05-05T08:51:46.681Z,556.88
2023-05-05T08:52:48.091Z,663.75
2023-05-05T08:53:46.614Z,225.00
2023-05-05T08:54:46.605Z,427.50
2023-05-05T08:55:46.594Z,174.38
2023-05-05T08:56:46.595Z,151.88
2023-05-05T08:57:46.601Z,151.88
2023-05-05T08:58:46.556Z,163.12
2023-05-05T08:59:46.558Z,202.50
2023-05-05T09:00:46.639Z,157.50
2023-05-05T09:01:46.560Z,303.75
2023-05-05T09:02:46.699Z,241.88
2023-05-05T09:03:46.516Z,258.75
2023-05-05T09:04:46.505Z,191.25
2023-05-05T09:05:46.512Z,163.12
2023-05-05T09:06:46.481Z,146.25
2023-05-05T09:07:46.459Z,253.12
2023-05-05T09:08:46.466Z,180.00
2023-05-05T09:09:46.460Z,151.88
2023-05-05T09:10:46.438Z,281.25
2023-05-05T09:11:46.441Z,168.75
2023-05-05T09:12:46.448Z,135.00
2023-05-05T09:13:46.428Z,135.00
2023-05-05T09:14:46.398Z,191.25
2023-05-05T09:15:46.392Z,292.50
2023-05-05T09:16:46.418Z,511.88
2023-05-05T09:17:46.387Z,281.25
2023-05-05T09:18:46.402Z,157.50
2023-05-05T09:19:46.336Z,568.12
2023-05-05T09:20:46.334Z,225.00
2023-05-05T09:21:46.357Z,433.12
2023-05-05T09:22:46.349Z,658.12
2023-05-05T09:23:46.304Z,303.75
2023-05-05T09:24:46.352Z,624.38
2023-05-05T09:25:46.319Z,270.00
2023-05-05T09:26:46.272Z,444.38
2023-05-05T09:27:46.297Z,225.00
2023-05-05T09:28:46.241Z,523.12
2023-05-05T09:29:46.280Z,506.25
2023-05-05T09:30:46.253Z,551.25
2023-05-05T09:31:46.544Z,478.12
2023-05-05T09:32:46.240Z,528.75
2023-05-05T09:33:46.237Z,540.00
2023-05-05T09:34:46.181Z,708.75
2023-05-05T09:35:46.205Z,517.50
2023-05-05T09:36:46.183Z,601.88
2023-05-05T09:37:46.207Z,607.50
2023-05-05T09:38:46.209Z,568.12
2023-05-05T09:39:46.135Z,630.00
2023-05-05T09:40:46.130Z,669.38
2023-05-05T09:41:46.138Z,855.00
2023-05-05T09:42:46.126Z,376.88
2023-05-05T09:43:46.095Z,545.62
2023-05-05T09:44:46.093Z,455.62
2023-05-05T09:45:46.073Z,421.88
2023-05-05T09:46:46.154Z,478.12
2023-05-05T09:47:46.130Z,393.75
2023-05-05T09:48:46.104Z,450.00
2023-05-05T09:49:46.068Z,281.25
2023-05-05T09:50:46.018Z,500.62
2023-05-05T09:51:46.030Z,208.12
2023-05-05T09:52:46.706Z,236.25
2023-05-05T09:53:46.169Z,540.00
2023-05-05T09:54:46.025Z,281.25
2023-05-05T09:55:46.004Z,360.00
2023-05-05T09:56:45.973Z,405.00
2023-05-05T09:57:46.037Z,309.38
2023-05-05T09:58:45.948Z,241.88
2023-05-05T09:59:46.474Z,213.75
2023-05-05T10:00:45.959Z,213.75
2023-05-05T10:01:45.985Z,264.38
2023-05-05T10:02:45.904Z,157.50
2023-05-05T10:03:45.899Z,151.88
2023-05-05T10:04:45.937Z,163.12
2023-05-05T10:05:45.911Z,270.00
2023-05-05T10:06:45.906Z,174.38
2023-05-05T10:07:45.881Z,309.38
2023-05-05T10:08:45.831Z,258.75
2023-05-05T10:09:45.823Z,253.12
2023-05-05T10:10:45.829Z,180.00
2023-05-05T10:11:45.843Z,163.12
2023-05-05T10:12:45.814Z,163.12
2023-05-05T10:13:45.824Z,196.88
2023-05-05T10:14:45.788Z,180.00
2023-05-05T10:15:45.806Z,185.62
2023-05-05T10:16:45.917Z,196.88
2023-05-05T10:17:57.798Z,213.75
2023-05-05T10:18:45.734Z,371.25
2023-05-05T10:19:45.743Z,371.25
2023-05-05T10:20:45.842Z,360.00
2023-05-05T10:21:45.721Z,438.75
2023-05-05T10:22:45.723Z,230.62
2023-05-05T10:23:45.676Z,225.00
2023-05-05T10:24:45.668Z,225.00
2023-05-05T10:25:45.708Z,213.75
2023-05-05T10:26:45.715Z,213.75
2023-05-05T10:27:45.679Z,219.38
2023-05-05T10:28:45.634Z,191.25
2023-05-05T10:29:45.662Z,225.00
2023-05-05T10:30:45.650Z,348.75
2023-05-05T10:31:45.613Z,270.00
2023-05-05T10:32:59.874Z,270.00
2023-05-05T10:33:45.665Z,281.25
2023-05-05T10:34:45.578Z,270.00
2023-05-05T10:35:45.563Z,213.75
2023-05-05T10:36:45.539Z,213.75
2023-05-05T10:37:45.589Z,157.50
2023-05-05T10:38:45.532Z,146.25
2023-05-05T10:39:45.539Z,146.25
2023-05-05T10:40:45.521Z,174.38
2023-05-05T10:41:45.497Z,298.12
2023-05-05T10:42:45.514Z,360.00
2023-05-05T10:43:45.495Z,151.88
2023-05-05T10:44:45.497Z,663.75
2023-05-05T10:45:45.510Z,478.12
2023-05-05T10:46:45.573Z,703.12
2023-05-05T10:47:45.516Z,292.50
2023-05-05T10:48:45.460Z,196.88
2023-05-05T10:49:45.405Z,258.75
2023-05-05T10:50:45.447Z,405.00
2023-05-05T10:51:45.414Z,146.25
2023-05-05T10:52:45.427Z,241.88
2023-05-05T10:53:45.437Z,545.62
2023-05-05T10:54:45.376Z,354.38
2023-05-05T10:55:45.384Z,399.38
2023-05-05T10:56:45.345Z,495.00
2023-05-05T10:57:45.380Z,174.38
2023-05-05T10:58:59.244Z,151.88
2023-05-05T10:59:45.317Z,151.88
2023-05-05T11:00:45.320Z,236.25
2023-05-05T11:01:45.310Z,191.25
2023-05-05T11:02:45.302Z,151.88
2023-05-05T11:03:45.299Z,438.75
2023-05-05T11:04:45.304Z,331.88
2023-05-05T11:05:45.257Z,264.38
2023-05-05T11:06:45.283Z,174.38
2023-05-05T11:07:45.254Z,264.38
2023-05-05T11:08:45.212Z,157.50
2023-05-05T11:09:45.242Z,157.50
2023-05-05T11:10:45.250Z,303.75
2023-05-05T11:11:45.192Z,151.88
2023-05-05T11:12:45.191Z,281.25
2023-05-05T11:13:45.172Z,483.75
2023-05-05T11:14:45.244Z,191.25
2023-05-05T11:15:45.137Z,376.88
2023-05-05T11:16:45.212Z,376.88
2023-05-05T11:17:45.139Z,225.00
2023-05-05T11:18:45.116Z,219.38
2023-05-05T11:19:45.099Z,241.88
2023-05-05T11:20:45.124Z,146.25
2023-05-05T11:21:45.117Z,281.25
2023-05-05T11:22:45.091Z,236.25
2023-05-05T11:23:45.081Z,641.25
2023-05-05T11:24:45.053Z,781.88
2023-05-05T11:25:45.041Z,466.88
2023-05-05T11:26:45.059Z,236.25
2023-05-05T11:27:45.019Z,275.62
2023-05-05T11:28:45.016Z,208.12
2023-05-05T11:29:44.990Z,427.50
2023-05-05T11:30:45.043Z,343.12
2023-05-05T11:31:44.964Z,410.62
2023-05-05T11:32:45.051Z,478.12
2023-05-05T11:33:44.958Z,303.75
2023-05-05T11:34:44.966Z,270.00
2023-05-05T11:35:44.960Z,230.62
2023-05-05T11:36:44.946Z,270.00
2023-05-05T11:37:44.934Z,326.25
2023-05-05T11:38:44.907Z,309.38
2023-05-05T11:39:44.906Z,450.00
2023-05-05T11:40:44.927Z,315.00
2023-05-05T11:41:44.888Z,309.38
2023-05-05T11:42:44.858Z,343.12
2023-05-05T11:43:44.849Z,315.00
2023-05-05T11:44:44.918Z,208.12
2023-05-05T11:45:45.011Z,140.62
2023-05-05T11:46:44.927Z,140.62
2023-05-05T11:47:44.807Z,140.62
2023-05-05T11:48:44.824Z,163.12
2023-05-05T11:49:44.831Z,196.88
2023-05-05T11:50:44.774Z,208.12
2023-05-05T11:51:44.778Z,213.75
2023-05-05T11:52:44.753Z,275.62
2023-05-05T11:53:44.747Z,213.75
2023-05-05T11:54:44.774Z,253.12
2023-05-05T11:55:44.726Z,281.25
2023-05-05T11:56:44.713Z,286.88
2023-05-05T11:57:44.704Z,241.88
2023-05-05T11:58:44.731Z,258.75
2023-05-05T11:59:44.731Z,219.38
2023-05-05T12:00:44.695Z,225.00
2023-05-05T12:01:44.668Z,270.00
2023-05-05T12:02:44.731Z,225.00
2023-05-05T12:03:44.797Z,388.12
2023-05-05T12:04:44.684Z,405.00
2023-05-05T12:05:44.650Z,213.75
2023-05-05T12:06:44.617Z,219.38
2023-05-05T12:07:44.612Z,225.00
2023-05-05T12:08:44.592Z,354.38
2023-05-05T12:09:44.572Z,315.00
2023-05-05T12:10:44.618Z,281.25
2023-05-05T12:11:44.619Z,253.12
2023-05-05T12:12:44.575Z,270.00
2023-05-05T12:13:44.550Z,360.00
2023-05-05T12:14:44.556Z,230.62
2023-05-05T12:15:44.547Z,472.50
2023-05-05T12:16:44.555Z,579.38
2023-05-05T12:17:44.527Z,765.00
2023-05-05T12:18:44.501Z,562.50
2023-05-05T12:19:44.495Z,298.12
2023-05-05T12:20:44.514Z,838.12
2023-05-05T12:21:44.464Z,607.50
2023-05-05T12:22:44.504Z,410.62
2023-05-05T12:23:44.495Z,438.75
2023-05-05T12:24:44.428Z,405.00
2023-05-05T12:25:44.411Z,331.88
2023-05-05T12:26:44.441Z,286.88
2023-05-05T12:27:44.412Z,348.75
2023-05-05T12:28:44.407Z,298.12
2023-05-05T12:29:44.385Z,286.88
2023-05-05T12:30:44.448Z,376.88
2023-05-05T12:31:44.443Z,444.38
2023-05-05T12:32:44.530Z,596.25
2023-05-05T12:33:44.370Z,585.00
2023-05-05T12:34:44.321Z,652.50
2023-05-05T12:35:44.327Z,866.25
2023-05-05T12:36:44.317Z,821.25
2023-05-05T12:37:44.300Z,770.62
2023-05-05T12:38:44.291Z,421.88
2023-05-05T12:39:44.273Z,590.62
2023-05-05T12:40:44.262Z,843.75
2023-05-05T12:41:44.268Z,849.38
2023-05-05T12:42:45.778Z,821.25
2023-05-05T12:43:44.242Z,939.38
2023-05-05T12:44:44.232Z,956.25
2023-05-05T12:45:44.284Z,1018.12
2023-05-05T12:46:44.230Z,585.00
2023-05-05T12:47:44.237Z,472.50
2023-05-05T12:48:47.259Z,388.12
2023-05-05T12:49:44.166Z,331.88
2023-05-05T12:50:44.152Z,393.75
2023-05-05T12:51:44.164Z,292.50